Rochester, Texas
Current Conditions -  °F | °C
As of 11:58 AM on Monday 24 Nov 2014 (Local Time) from KDYS Reporting Station
Clear Clear  
Wind Chill: 55°   Ceiling: Unl
Heat Index: 55°   Visibility: 10mi
Dew Point: 20°   Wind: 3mph
Humidity: 26%   Direction: NA
Pressure: 30.08"   Gusts: NA
Location:  33.32°N, 99.86°W
Report Text: KDYS 241758Z AUTO VRB03KT 10SM CLR 13/M06 A3008 RMK AO2 SLP178 T01281065 10128 20021 58000 $
Loading
Personal Weather Stations






























Interactive Weather Map New forecast layout! Learn more

10-Day Weather Forecast

Advertisements
Track Severe Weather on mobile